sensor_id;sensor_type;location;lat;lon;timestamp;temperature;humidity
67901;DHT22;54700;51.796;10.956;2023-04-25T00:02:26;7.60;69.50
67901;DHT22;54700;51.796;10.956;2023-04-25T00:04:53;7.50;70.20
67901;DHT22;54700;51.796;10.956;2023-04-25T00:07:26;7.50;71.40
67901;DHT22;54700;51.796;10.956;2023-04-25T00:09:53;7.40;72.10
67901;DHT22;54700;51.796;10.956;2023-04-25T00:12:20;7.40;72.70
67901;DHT22;54700;51.796;10.956;2023-04-25T00:14:49;7.30;73.10
67901;DHT22;54700;51.796;10.956;2023-04-25T00:17:16;7.30;74.00
67901;DHT22;54700;51.796;10.956;2023-04-25T00:19:44;7.30;74.40
67901;DHT22;54700;51.796;10.956;2023-04-25T00:22:11;7.20;75.20
67901;DHT22;54700;51.796;10.956;2023-04-25T00:24:38;7.20;75.50
67901;DHT22;54700;51.796;10.956;2023-04-25T00:27:06;7.10;76.30
67901;DHT22;54700;51.796;10.956;2023-04-25T00:29:33;7.10;76.50
67901;DHT22;54700;51.796;10.956;2023-04-25T00:32:02;7.00;76.30
67901;DHT22;54700;51.796;10.956;2023-04-25T00:34:29;7.00;75.90
67901;DHT22;54700;51.796;10.956;2023-04-25T00:36:56;7.00;75.20
67901;DHT22;54700;51.796;10.956;2023-04-25T00:39:23;7.00;75.90
67901;DHT22;54700;51.796;10.956;2023-04-25T00:41:50;6.90;76.20
67901;DHT22;54700;51.796;10.956;2023-04-25T00:44:20;6.90;76.90
67901;DHT22;54700;51.796;10.956;2023-04-25T00:46:47;6.90;77.50
67901;DHT22;54700;51.796;10.956;2023-04-25T00:49:16;6.90;77.70
67901;DHT22;54700;51.796;10.956;2023-04-25T00:51:45;6.80;78.20
67901;DHT22;54700;51.796;10.956;2023-04-25T00:54:12;6.80;78.40
67901;DHT22;54700;51.796;10.956;2023-04-25T00:56:40;6.80;79.10
67901;DHT22;54700;51.796;10.956;2023-04-25T00:59:08;6.80;79.10
67901;DHT22;54700;51.796;10.956;2023-04-25T01:01:36;6.70;79.50
67901;DHT22;54700;51.796;10.956;2023-04-25T01:04:05;6.70;79.60
67901;DHT22;54700;51.796;10.956;2023-04-25T01:06:33;6.70;79.70
67901;DHT22;54700;51.796;10.956;2023-04-25T01:09:01;6.70;79.50
67901;DHT22;54700;51.796;10.956;2023-04-25T01:11:31;6.70;79.40
67901;DHT22;54700;51.796;10.956;2023-04-25T01:14:02;6.70;78.80
67901;DHT22;54700;51.796;10.956;2023-04-25T01:16:29;6.70;78.50
67901;DHT22;54700;51.796;10.956;2023-04-25T01:18:58;6.70;79.50
67901;DHT22;54700;51.796;10.956;2023-04-25T01:21:27;6.60;80.00
67901;DHT22;54700;51.796;10.956;2023-04-25T01:23:56;6.60;79.80
67901;DHT22;54700;51.796;10.956;2023-04-25T01:26:23;6.70;80.40
67901;DHT22;54700;51.796;10.956;2023-04-25T01:28:51;6.70;79.40
67901;DHT22;54700;51.796;10.956;2023-04-25T01:31:18;6.70;79.80
67901;DHT22;54700;51.796;10.956;2023-04-25T01:33:46;6.70;79.60
67901;DHT22;54700;51.796;10.956;2023-04-25T01:36:17;6.80;79.40
67901;DHT22;54700;51.796;10.956;2023-04-25T01:38:46;6.80;78.90
67901;DHT22;54700;51.796;10.956;2023-04-25T01:41:19;6.80;79.30
67901;DHT22;54700;51.796;10.956;2023-04-25T01:43:48;6.80;79.10
67901;DHT22;54700;51.796;10.956;2023-04-25T01:46:15;6.80;79.10
67901;DHT22;54700;51.796;10.956;2023-04-25T01:48:43;6.90;80.60
67901;DHT22;54700;51.796;10.956;2023-04-25T01:51:10;6.80;79.70
67901;DHT22;54700;51.796;10.956;2023-04-25T01:53:37;6.80;80.20
67901;DHT22;54700;51.796;10.956;2023-04-25T01:56:06;6.80;81.10
67901;DHT22;54700;51.796;10.956;2023-04-25T01:58:33;6.80;81.30
67901;DHT22;54700;51.796;10.956;2023-04-25T02:01:01;6.70;81.70
67901;DHT22;54700;51.796;10.956;2023-04-25T02:03:31;6.70;81.90
67901;DHT22;54700;51.796;10.956;2023-04-25T02:05:58;6.60;82.20
67901;DHT22;54700;51.796;10.956;2023-04-25T02:08:25;6.50;82.70
67901;DHT22;54700;51.796;10.956;2023-04-25T02:10:53;6.50;83.10
67901;DHT22;54700;51.796;10.956;2023-04-25T02:13:21;6.50;83.60
67901;DHT22;54700;51.796;10.956;2023-04-25T02:15:48;6.40;84.40
67901;DHT22;54700;51.796;10.956;2023-04-25T02:18:15;6.40;84.30
67901;DHT22;54700;51.796;10.956;2023-04-25T02:20:42;6.40;84.40
67901;DHT22;54700;51.796;10.956;2023-04-25T02:23:09;6.50;84.70
67901;DHT22;54700;51.796;10.956;2023-04-25T02:25:37;6.50;84.60
67901;DHT22;54700;51.796;10.956;2023-04-25T02:28:04;6.50;83.90
67901;DHT22;54700;51.796;10.956;2023-04-25T02:30:35;6.50;83.90
67901;DHT22;54700;51.796;10.956;2023-04-25T02:33:02;6.60;83.50
67901;DHT22;54700;51.796;10.956;2023-04-25T02:35:32;6.60;85.20
67901;DHT22;54700;51.796;10.956;2023-04-25T02:37:59;6.60;84.70
67901;DHT22;54700;51.796;10.956;2023-04-25T02:40:26;6.60;85.20
67901;DHT22;54700;51.796;10.956;2023-04-25T02:42:53;6.60;85.60
67901;DHT22;54700;51.796;10.956;2023-04-25T02:45:22;6.60;85.90
67901;DHT22;54700;51.796;10.956;2023-04-25T02:47:50;6.50;87.50
67901;DHT22;54700;51.796;10.956;2023-04-25T02:50:17;6.50;87.70
67901;DHT22;54700;51.796;10.956;2023-04-25T02:52:47;6.50;88.90
67901;DHT22;54700;51.796;10.956;2023-04-25T02:55:17;6.50;88.90
67901;DHT22;54700;51.796;10.956;2023-04-25T02:57:45;6.50;89.30
67901;DHT22;54700;51.796;10.956;2023-04-25T03:00:12;6.50;90.10
67901;DHT22;54700;51.796;10.956;2023-04-25T03:02:42;6.50;90.20
67901;DHT22;54700;51.796;10.956;2023-04-25T03:05:11;6.50;90.50
67901;DHT22;54700;51.796;10.956;2023-04-25T03:07:38;6.40;90.80
67901;DHT22;54700;51.796;10.956;2023-04-25T03:10:06;6.40;90.70
67901;DHT22;54700;51.796;10.956;2023-04-25T03:12:38;6.40;90.90
67901;DHT22;54700;51.796;10.956;2023-04-25T03:15:11;6.40;90.90
67901;DHT22;54700;51.796;10.956;2023-04-25T03:17:38;6.40;91.30
67901;DHT22;54700;51.796;10.956;2023-04-25T03:20:06;6.40;91.70
67901;DHT22;54700;51.796;10.956;2023-04-25T03:22:38;6.40;91.90
67901;DHT22;54700;51.796;10.956;2023-04-25T03:25:05;6.40;91.80
67901;DHT22;54700;51.796;10.956;2023-04-25T03:27:33;6.40;91.30
67901;DHT22;54700;51.796;10.956;2023-04-25T03:30:00;6.50;91.00
67901;DHT22;54700;51.796;10.956;2023-04-25T03:32:27;6.50;91.10
67901;DHT22;54700;51.796;10.956;2023-04-25T03:34:54;6.50;91.10
67901;DHT22;54700;51.796;10.956;2023-04-25T03:37:21;6.50;91.50
67901;DHT22;54700;51.796;10.956;2023-04-25T03:39:50;6.50;91.50
67901;DHT22;54700;51.796;10.956;2023-04-25T03:42:16;6.50;91.80
67901;DHT22;54700;51.796;10.956;2023-04-25T03:44:43;6.50;91.70
67901;DHT22;54700;51.796;10.956;2023-04-25T03:47:12;6.60;91.60
67901;DHT22;54700;51.796;10.956;2023-04-25T03:49:44;6.60;91.90
67901;DHT22;54700;51.796;10.956;2023-04-25T03:52:11;6.60;91.90
67901;DHT22;54700;51.796;10.956;2023-04-25T03:54:38;6.70;91.90
67901;DHT22;54700;51.796;10.956;2023-04-25T03:57:07;6.70;92.10
67901;DHT22;54700;51.796;10.956;2023-04-25T03:59:36;6.60;92.20
67901;DHT22;54700;51.796;10.956;2023-04-25T04:02:03;6.70;92.40
67901;DHT22;54700;51.796;10.956;2023-04-25T04:04:33;6.70;92.30
67901;DHT22;54700;51.796;10.956;2023-04-25T04:07:00;6.70;92.60
67901;DHT22;54700;51.796;10.956;2023-04-25T04:09:28;6.70;92.70
67901;DHT22;54700;51.796;10.956;2023-04-25T04:11:55;6.70;92.90
67901;DHT22;54700;51.796;10.956;2023-04-25T04:14:23;6.70;93.00
67901;DHT22;54700;51.796;10.956;2023-04-25T04:16:51;6.70;93.20
67901;DHT22;54700;51.796;10.956;2023-04-25T04:19:18;6.80;93.30
67901;DHT22;54700;51.796;10.956;2023-04-25T04:21:45;6.80;93.60
67901;DHT22;54700;51.796;10.956;2023-04-25T04:24:12;6.80;93.50
67901;DHT22;54700;51.796;10.956;2023-04-25T04:26:40;6.80;93.70
67901;DHT22;54700;51.796;10.956;2023-04-25T04:29:10;6.80;93.80
67901;DHT22;54700;51.796;10.956;2023-04-25T04:31:38;6.80;93.70
67901;DHT22;54700;51.796;10.956;2023-04-25T04:34:05;6.90;94.10
67901;DHT22;54700;51.796;10.956;2023-04-25T04:36:32;6.90;94.00
67901;DHT22;54700;51.796;10.956;2023-04-25T04:39:02;6.90;93.90
67901;DHT22;54700;51.796;10.956;2023-04-25T04:41:29;6.90;94.60
67901;DHT22;54700;51.796;10.956;2023-04-25T04:43:56;6.90;94.10
67901;DHT22;54700;51.796;10.956;2023-04-25T04:46:23;6.90;93.50
67901;DHT22;54700;51.796;10.956;2023-04-25T04:48:52;6.90;93.80
67901;DHT22;54700;51.796;10.956;2023-04-25T04:51:21;7.00;94.20
67901;DHT22;54700;51.796;10.956;2023-04-25T04:54:10;7.00;93.90
67901;DHT22;54700;51.796;10.956;2023-04-25T04:56:49;7.10;93.20
67901;DHT22;54700;51.796;10.956;2023-04-25T04:59:19;7.10;93.30
67901;DHT22;54700;51.796;10.956;2023-04-25T05:05:01;7.10;91.30
67901;DHT22;54700;51.796;10.956;2023-04-25T05:07:40;7.20;91.00
67901;DHT22;54700;51.796;10.956;2023-04-25T05:10:56;7.10;91.70
67901;DHT22;54700;51.796;10.956;2023-04-25T05:14:06;7.10;91.80
67901;DHT22;54700;51.796;10.956;2023-04-25T05:17:20;7.00;93.20
67901;DHT22;54700;51.796;10.956;2023-04-25T05:20:27;6.90;96.40
67901;DHT22;54700;51.796;10.956;2023-04-25T05:23:20;6.80;98.60
67901;DHT22;54700;51.796;10.956;2023-04-25T05:25:51;6.60;99.90
67901;DHT22;54700;51.796;10.956;2023-04-25T05:28:20;6.40;99.40
67901;DHT22;54700;51.796;10.956;2023-04-25T05:30:57;6.20;99.90
67901;DHT22;54700;51.796;10.956;2023-04-25T05:33:30;6.20;99.90
67901;DHT22;54700;51.796;10.956;2023-04-25T05:36:02;6.10;99.90
67901;DHT22;54700;51.796;10.956;2023-04-25T05:38:35;6.10;99.90
67901;DHT22;54700;51.796;10.956;2023-04-25T05:41:09;6.10;99.90
67901;DHT22;54700;51.796;10.956;2023-04-25T05:43:39;6.10;99.90
67901;DHT22;54700;51.796;10.956;2023-04-25T05:46:10;6.00;99.90
67901;DHT22;54700;51.796;10.956;2023-04-25T05:48:54;6.00;99.90
67901;DHT22;54700;51.796;10.956;2023-04-25T05:51:31;5.80;99.90
67901;DHT22;54700;51.796;10.956;2023-04-25T05:54:15;5.80;99.90
67901;DHT22;54700;51.796;10.956;2023-04-25T05:57:28;5.80;99.90
67901;DHT22;54700;51.796;10.956;2023-04-25T06:00:15;5.80;99.90
67901;DHT22;54700;51.796;10.956;2023-04-25T06:03:06;5.80;99.90
67901;DHT22;54700;51.796;10.956;2023-04-25T06:05:44;5.80;99.90
67901;DHT22;54700;51.796;10.956;2023-04-25T06:08:23;5.90;99.90
67901;DHT22;54700;51.796;10.956;2023-04-25T06:11:04;6.10;99.90
67901;DHT22;54700;51.796;10.956;2023-04-25T06:13:40;6.30;99.90
67901;DHT22;54700;51.796;10.956;2023-04-25T06:16:08;6.60;99.90
67901;DHT22;54700;51.796;10.956;2023-04-25T06:18:46;6.90;99.90
67901;DHT22;54700;51.796;10.956;2023-04-25T06:21:29;7.00;99.90
67901;DHT22;54700;51.796;10.956;2023-04-25T06:27:43;7.10;96.40
67901;DHT22;54700;51.796;10.956;2023-04-25T06:30:39;7.20;94.50
67901;DHT22;54700;51.796;10.956;2023-04-25T06:33:54;7.20;92.90
67901;DHT22;54700;51.796;10.956;2023-04-25T06:36:54;7.30;94.70
67901;DHT22;54700;51.796;10.956;2023-04-25T06:40:00;7.30;92.90
67901;DHT22;54700;51.796;10.956;2023-04-25T06:46:03;7.30;93.40
67901;DHT22;54700;51.796;10.956;2023-04-25T06:58:43;7.30;92.30
67901;DHT22;54700;51.796;10.956;2023-04-25T06:59:30;7.30;89.50
67901;DHT22;54700;51.796;10.956;2023-04-25T07:05:45;7.50;85.20
67901;DHT22;54700;51.796;10.956;2023-04-25T07:08:38;7.60;79.60
67901;DHT22;54700;51.796;10.956;2023-04-25T07:11:50;7.70;81.40
67901;DHT22;54700;51.796;10.956;2023-04-25T08:35:22;9.10;59.70
67901;DHT22;54700;51.796;10.956;2023-04-25T08:40:48;9.10;58.70
67901;DHT22;54700;51.796;10.956;2023-04-25T08:43:17;9.10;58.70
67901;DHT22;54700;51.796;10.956;2023-04-25T08:45:46;8.90;58.70
67901;DHT22;54700;51.796;10.956;2023-04-25T08:48:34;8.60;60.70
67901;DHT22;54700;51.796;10.956;2023-04-25T08:51:03;8.50;61.70
67901;DHT22;54700;51.796;10.956;2023-04-25T08:53:46;8.50;59.60
67901;DHT22;54700;51.796;10.956;2023-04-25T08:56:24;8.60;58.50
67901;DHT22;54700;51.796;10.956;2023-04-25T08:59:09;8.70;55.70
67901;DHT22;54700;51.796;10.956;2023-04-25T09:05:35;8.30;56.20
67901;DHT22;54700;51.796;10.956;2023-04-25T09:12:19;8.30;58.10
67901;DHT22;54700;51.796;10.956;2023-04-25T09:15:01;8.60;57.60
67901;DHT22;54700;51.796;10.956;2023-04-25T09:18:03;8.60;57.60
67901;DHT22;54700;51.796;10.956;2023-04-25T09:20:46;8.60;58.80
67901;DHT22;54700;51.796;10.956;2023-04-25T09:23:44;8.70;58.70
67901;DHT22;54700;51.796;10.956;2023-04-25T09:29:56;8.60;57.30
67901;DHT22;54700;51.796;10.956;2023-04-25T09:32:43;8.60;56.10
67901;DHT22;54700;51.796;10.956;2023-04-25T09:38:51;8.60;55.40
67901;DHT22;54700;51.796;10.956;2023-04-25T09:41:41;8.60;55.70
67901;DHT22;54700;51.796;10.956;2023-04-25T09:44:23;8.90;54.00
67901;DHT22;54700;51.796;10.956;2023-04-25T09:47:22;9.20;54.20
67901;DHT22;54700;51.796;10.956;2023-04-25T09:49:57;9.20;53.90
67901;DHT22;54700;51.796;10.956;2023-04-25T09:52:35;8.90;54.80
67901;DHT22;54700;51.796;10.956;2023-04-25T09:55:20;8.70;55.80
67901;DHT22;54700;51.796;10.956;2023-04-25T09:58:03;8.50;54.30
67901;DHT22;54700;51.796;10.956;2023-04-25T10:03:45;8.40;52.00
67901;DHT22;54700;51.796;10.956;2023-04-25T10:10:11;8.50;51.80
67901;DHT22;54700;51.796;10.956;2023-04-25T12:18:52;10.00;42.90
67901;DHT22;54700;51.796;10.956;2023-04-25T12:21:34;9.90;42.50
67901;DHT22;54700;51.796;10.956;2023-04-25T12:24:15;9.80;43.60
67901;DHT22;54700;51.796;10.956;2023-04-25T12:26:48;9.80;43.40
67901;DHT22;54700;51.796;10.956;2023-04-25T12:29:20;9.90;43.90
67901;DHT22;54700;51.796;10.956;2023-04-25T12:31:53;9.90;42.80
67901;DHT22;54700;51.796;10.956;2023-04-25T12:34:31;10.00;42.60
67901;DHT22;54700;51.796;10.956;2023-04-25T12:37:04;10.20;43.20
67901;DHT22;54700;51.796;10.956;2023-04-25T12:39:31;10.40;43.40
67901;DHT22;54700;51.796;10.956;2023-04-25T12:41:59;10.50;42.60
67901;DHT22;54700;51.796;10.956;2023-04-25T12:44:38;10.50;41.00
67901;DHT22;54700;51.796;10.956;2023-04-25T12:47:07;10.40;42.00
67901;DHT22;54700;51.796;10.956;2023-04-25T12:49:35;10.20;42.00
67901;DHT22;54700;51.796;10.956;2023-04-25T12:52:05;10.10;42.40
67901;DHT22;54700;51.796;10.956;2023-04-25T12:54:35;10.00;43.60
67901;DHT22;54700;51.796;10.956;2023-04-25T12:57:05;9.80;44.20
67901;DHT22;54700;51.796;10.956;2023-04-25T12:59:36;9.70;43.50
67901;DHT22;54700;51.796;10.956;2023-04-25T13:02:11;9.80;43.40
67901;DHT22;54700;51.796;10.956;2023-04-25T13:04:41;10.00;44.30
67901;DHT22;54700;51.796;10.956;2023-04-25T13:07:19;9.80;44.30
67901;DHT22;54700;51.796;10.956;2023-04-25T13:09:49;9.60;44.90
67901;DHT22;54700;51.796;10.956;2023-04-25T13:12:17;9.60;45.80
67901;DHT22;54700;51.796;10.956;2023-04-25T13:14:44;9.40;46.90
67901;DHT22;54700;51.796;10.956;2023-04-25T13:17:16;9.50;47.80
67901;DHT22;54700;51.796;10.956;2023-04-25T13:19:44;9.30;47.90
67901;DHT22;54700;51.796;10.956;2023-04-25T13:22:11;9.30;47.80
67901;DHT22;54700;51.796;10.956;2023-04-25T13:24:42;9.10;48.20
67901;DHT22;54700;51.796;10.956;2023-04-25T13:27:10;9.00;49.50
67901;DHT22;54700;51.796;10.956;2023-04-25T13:29:40;9.10;49.90
67901;DHT22;54700;51.796;10.956;2023-04-25T13:32:16;9.00;51.00
67901;DHT22;54700;51.796;10.956;2023-04-25T13:34:48;9.00;50.70
67901;DHT22;54700;51.796;10.956;2023-04-25T13:37:35;8.90;51.80
67901;DHT22;54700;51.796;10.956;2023-04-25T13:40:10;9.00;52.00
67901;DHT22;54700;51.796;10.956;2023-04-25T13:42:43;9.00;51.50
67901;DHT22;54700;51.796;10.956;2023-04-25T13:45:19;9.10;51.40
67901;DHT22;54700;51.796;10.956;2023-04-25T13:47:54;9.10;51.10
67901;DHT22;54700;51.796;10.956;2023-04-25T13:50:21;9.20;50.80
67901;DHT22;54700;51.796;10.956;2023-04-25T13:52:48;9.10;50.90
67901;DHT22;54700;51.796;10.956;2023-04-25T13:55:18;9.20;50.10
67901;DHT22;54700;51.796;10.956;2023-04-25T13:57:46;9.30;50.40
67901;DHT22;54700;51.796;10.956;2023-04-25T14:00:13;9.30;50.60
67901;DHT22;54700;51.796;10.956;2023-04-25T14:02:44;9.10;50.80
67901;DHT22;54700;51.796;10.956;2023-04-25T14:05:13;9.00;51.80
67901;DHT22;54700;51.796;10.956;2023-04-25T14:07:41;8.80;52.80
67901;DHT22;54700;51.796;10.956;2023-04-25T14:10:08;8.70;53.90
67901;DHT22;54700;51.796;10.956;2023-04-25T14:12:36;8.60;54.80
67901;DHT22;54700;51.796;10.956;2023-04-25T14:15:03;8.50;54.70
67901;DHT22;54700;51.796;10.956;2023-04-25T14:17:33;8.50;54.80
67901;DHT22;54700;51.796;10.956;2023-04-25T14:20:01;8.40;55.00
67901;DHT22;54700;51.796;10.956;2023-04-25T14:22:32;8.40;55.20
67901;DHT22;54700;51.796;10.956;2023-04-25T14:25:00;8.50;55.20
67901;DHT22;54700;51.796;10.956;2023-04-25T14:27:27;8.70;54.50
67901;DHT22;54700;51.796;10.956;2023-04-25T14:29:54;8.80;53.10
67901;DHT22;54700;51.796;10.956;2023-04-25T14:32:21;9.00;52.70
67901;DHT22;54700;51.796;10.956;2023-04-25T14:34:48;9.30;52.40
67901;DHT22;54700;51.796;10.956;2023-04-25T14:37:21;9.60;51.50
67901;DHT22;54700;51.796;10.956;2023-04-25T14:39:49;9.50;48.70
67901;DHT22;54700;51.796;10.956;2023-04-25T14:42:19;9.50;48.90
67901;DHT22;54700;51.796;10.956;2023-04-25T14:44:46;9.50;49.30
67901;DHT22;54700;51.796;10.956;2023-04-25T14:47:14;9.40;48.90
67901;DHT22;54700;51.796;10.956;2023-04-25T14:49:42;9.20;49.20
67901;DHT22;54700;51.796;10.956;2023-04-25T14:52:12;9.10;49.90
67901;DHT22;54700;51.796;10.956;2023-04-25T14:54:39;8.90;49.70
67901;DHT22;54700;51.796;10.956;2023-04-25T14:57:07;8.90;50.20
67901;DHT22;54700;51.796;10.956;2023-04-25T14:59:43;9.00;50.10
67901;DHT22;54700;51.796;10.956;2023-04-25T15:02:14;9.00;50.20
67901;DHT22;54700;51.796;10.956;2023-04-25T15:04:41;9.10;50.60
67901;DHT22;54700;51.796;10.956;2023-04-25T15:07:08;9.00;51.10
67901;DHT22;54700;51.796;10.956;2023-04-25T15:09:35;9.00;51.40
67901;DHT22;54700;51.796;10.956;2023-04-25T15:12:10;9.00;51.90
67901;DHT22;54700;51.796;10.956;2023-04-25T15:14:41;9.00;52.00
67901;DHT22;54700;51.796;10.956;2023-04-25T15:17:08;9.00;52.50
67901;DHT22;54700;51.796;10.956;2023-04-25T15:19:35;8.90;53.50
67901;DHT22;54700;51.796;10.956;2023-04-25T15:22:02;8.90;54.50
67901;DHT22;54700;51.796;10.956;2023-04-25T15:24:32;8.90;54.00
67901;DHT22;54700;51.796;10.956;2023-04-25T15:26:59;8.80;53.80
67901;DHT22;54700;51.796;10.956;2023-04-25T15:29:28;8.80;52.80
67901;DHT22;54700;51.796;10.956;2023-04-25T15:31:55;8.80;53.30
67901;DHT22;54700;51.796;10.956;2023-04-25T15:34:22;8.80;52.20
67901;DHT22;54700;51.796;10.956;2023-04-25T15:36:52;8.70;51.50
67901;DHT22;54700;51.796;10.956;2023-04-25T15:39:21;8.70;52.20
67901;DHT22;54700;51.796;10.956;2023-04-25T15:41:54;8.70;52.50
67901;DHT22;54700;51.796;10.956;2023-04-25T15:44:21;8.70;52.30
67901;DHT22;54700;51.796;10.956;2023-04-25T15:46:49;8.80;52.40
67901;DHT22;54700;51.796;10.956;2023-04-25T15:49:17;8.90;52.00
67901;DHT22;54700;51.796;10.956;2023-04-25T15:51:47;9.00;51.90
67901;DHT22;54700;51.796;10.956;2023-04-25T15:54:15;8.90;52.00
67901;DHT22;54700;51.796;10.956;2023-04-25T15:56:46;8.80;52.30
67901;DHT22;54700;51.796;10.956;2023-04-25T15:59:13;8.90;52.70
67901;DHT22;54700;51.796;10.956;2023-04-25T16:01:47;8.80;53.10
67901;DHT22;54700;51.796;10.956;2023-04-25T16:04:19;8.80;52.70
67901;DHT22;54700;51.796;10.956;2023-04-25T16:06:46;8.80;53.30
67901;DHT22;54700;51.796;10.956;2023-04-25T16:09:18;8.80;53.20
67901;DHT22;54700;51.796;10.956;2023-04-25T16:11:49;8.80;53.20
67901;DHT22;54700;51.796;10.956;2023-04-25T16:14:16;8.80;52.80
67901;DHT22;54700;51.796;10.956;2023-04-25T16:16:43;8.70;53.20
67901;DHT22;54700;51.796;10.956;2023-04-25T16:19:13;8.70;53.40
67901;DHT22;54700;51.796;10.956;2023-04-25T16:21:43;8.70;53.50
67901;DHT22;54700;51.796;10.956;2023-04-25T16:24:12;8.60;53.90
67901;DHT22;54700;51.796;10.956;2023-04-25T16:26:43;8.70;53.90
67901;DHT22;54700;51.796;10.956;2023-04-25T16:29:11;8.50;56.20
67901;DHT22;54700;51.796;10.956;2023-04-25T16:31:39;8.10;58.20
67901;DHT22;54700;51.796;10.956;2023-04-25T16:34:07;7.80;59.70
67901;DHT22;54700;51.796;10.956;2023-04-25T16:36:35;7.70;61.30
67901;DHT22;54700;51.796;10.956;2023-04-25T16:39:07;7.60;62.60
67901;DHT22;54700;51.796;10.956;2023-04-25T16:41:37;7.60;63.70
67901;DHT22;54700;51.796;10.956;2023-04-25T16:44:08;7.60;64.20
67901;DHT22;54700;51.796;10.956;2023-04-25T16:46:35;7.50;64.50
67901;DHT22;54700;51.796;10.956;2023-04-25T16:49:03;7.50;64.60
67901;DHT22;54700;51.796;10.956;2023-04-25T16:51:30;7.50;66.80
67901;DHT22;54700;51.796;10.956;2023-04-25T16:53:58;7.40;72.20
67901;DHT22;54700;51.796;10.956;2023-04-25T16:56:29;7.40;72.20
67901;DHT22;54700;51.796;10.956;2023-04-25T16:58:57;7.40;73.70
67901;DHT22;54700;51.796;10.956;2023-04-25T17:01:33;7.30;75.00
67901;DHT22;54700;51.796;10.956;2023-04-25T17:04:00;7.20;76.70
67901;DHT22;54700;51.796;10.956;2023-04-25T17:06:30;7.20;78.80
67901;DHT22;54700;51.796;10.956;2023-04-25T17:09:00;7.30;78.60
67901;DHT22;54700;51.796;10.956;2023-04-25T17:11:27;7.30;77.40
67901;DHT22;54700;51.796;10.956;2023-04-25T17:13:56;7.40;72.80
67901;DHT22;54700;51.796;10.956;2023-04-25T17:16:27;7.50;75.40
67901;DHT22;54700;51.796;10.956;2023-04-25T17:19:00;7.70;68.20
67901;DHT22;54700;51.796;10.956;2023-04-25T17:21:28;7.90;65.40
67901;DHT22;54700;51.796;10.956;2023-04-25T17:23:58;8.10;64.40
67901;DHT22;54700;51.796;10.956;2023-04-25T17:26:25;8.20;63.80
67901;DHT22;54700;51.796;10.956;2023-04-25T17:28:52;8.20;62.70
67901;DHT22;54700;51.796;10.956;2023-04-25T17:31:22;8.20;63.00
67901;DHT22;54700;51.796;10.956;2023-04-25T17:33:50;8.10;63.40
67901;DHT22;54700;51.796;10.956;2023-04-25T17:36:17;8.00;61.60
67901;DHT22;54700;51.796;10.956;2023-04-25T17:38:46;7.90;61.30
67901;DHT22;54700;51.796;10.956;2023-04-25T17:41:21;7.80;61.60
67901;DHT22;54700;51.796;10.956;2023-04-25T17:43:48;7.70;62.30
67901;DHT22;54700;51.796;10.956;2023-04-25T17:46:17;7.70;63.00
67901;DHT22;54700;51.796;10.956;2023-04-25T17:48:49;7.70;64.50
67901;DHT22;54700;51.796;10.956;2023-04-25T17:51:19;7.60;66.10
67901;DHT22;54700;51.796;10.956;2023-04-25T17:53:46;7.50;68.30
67901;DHT22;54700;51.796;10.956;2023-04-25T17:56:16;7.40;70.40
67901;DHT22;54700;51.796;10.956;2023-04-25T17:58:43;7.20;71.00
67901;DHT22;54700;51.796;10.956;2023-04-25T18:01:11;7.10;72.20
67901;DHT22;54700;51.796;10.956;2023-04-25T18:03:38;7.00;74.90
67901;DHT22;54700;51.796;10.956;2023-04-25T18:06:11;7.00;74.50
67901;DHT22;54700;51.796;10.956;2023-04-25T18:08:38;7.00;76.20
67901;DHT22;54700;51.796;10.956;2023-04-25T18:11:05;6.90;77.10
67901;DHT22;54700;51.796;10.956;2023-04-25T18:13:33;6.90;78.10
67901;DHT22;54700;51.796;10.956;2023-04-25T18:16:01;6.90;77.90
67901;DHT22;54700;51.796;10.956;2023-04-25T18:18:28;7.00;77.80
67901;DHT22;54700;51.796;10.956;2023-04-25T18:20:58;7.00;80.40
67901;DHT22;54700;51.796;10.956;2023-04-25T18:23:29;7.00;82.00
67901;DHT22;54700;51.796;10.956;2023-04-25T18:25:58;6.90;88.30
67901;DHT22;54700;51.796;10.956;2023-04-25T18:28:28;6.80;91.20
67901;DHT22;54700;51.796;10.956;2023-04-25T18:30:55;6.70;93.20
67901;DHT22;54700;51.796;10.956;2023-04-25T18:33:22;6.60;92.50
67901;DHT22;54700;51.796;10.956;2023-04-25T18:35:49;6.50;93.60
67901;DHT22;54700;51.796;10.956;2023-04-25T18:38:17;6.40;94.60
67901;DHT22;54700;51.796;10.956;2023-04-25T18:40:47;6.30;94.70
67901;DHT22;54700;51.796;10.956;2023-04-25T18:43:14;6.30;95.50
67901;DHT22;54700;51.796;10.956;2023-04-25T18:45:41;6.20;96.30
67901;DHT22;54700;51.796;10.956;2023-04-25T18:48:08;6.20;95.60
67901;DHT22;54700;51.796;10.956;2023-04-25T18:50:35;6.20;96.70
67901;DHT22;54700;51.796;10.956;2023-04-25T18:53:05;6.10;98.00
67901;DHT22;54700;51.796;10.956;2023-04-25T18:55:32;6.10;96.40
67901;DHT22;54700;51.796;10.956;2023-04-25T18:58:01;6.10;96.40
67901;DHT22;54700;51.796;10.956;2023-04-25T19:00:28;6.00;96.10
67901;DHT22;54700;51.796;10.956;2023-04-25T19:02:55;6.10;97.60
67901;DHT22;54700;51.796;10.956;2023-04-25T19:05:27;6.10;98.40
67901;DHT22;54700;51.796;10.956;2023-04-25T19:07:54;6.10;98.80
67901;DHT22;54700;51.796;10.956;2023-04-25T19:10:24;6.10;98.20
67901;DHT22;54700;51.796;10.956;2023-04-25T19:12:53;6.10;99.20
67901;DHT22;54700;51.796;10.956;2023-04-25T19:15:21;6.00;99.90
67901;DHT22;54700;51.796;10.956;2023-04-25T19:17:48;6.00;99.90
67901;DHT22;54700;51.796;10.956;2023-04-25T19:20:15;5.90;99.90
67901;DHT22;54700;51.796;10.956;2023-04-25T19:22:45;6.00;99.90
67901;DHT22;54700;51.796;10.956;2023-04-25T19:25:12;6.00;99.90
67901;DHT22;54700;51.796;10.956;2023-04-25T19:27:39;6.00;99.90
67901;DHT22;54700;51.796;10.956;2023-04-25T19:30:07;6.00;94.90
67901;DHT22;54700;51.796;10.956;2023-04-25T19:32:36;6.10;95.00
67901;DHT22;54700;51.796;10.956;2023-04-25T19:35:06;5.90;94.40
67901;DHT22;54700;51.796;10.956;2023-04-25T19:37:35;5.80;96.00
67901;DHT22;54700;51.796;10.956;2023-04-25T19:40:02;5.70;96.00
67901;DHT22;54700;51.796;10.956;2023-04-25T19:42:31;5.70;96.90
67901;DHT22;54700;51.796;10.956;2023-04-25T19:44:58;5.60;97.00
67901;DHT22;54700;51.796;10.956;2023-04-25T19:47:29;5.60;98.20
67901;DHT22;54700;51.796;10.956;2023-04-25T19:49:57;5.60;98.70
67901;DHT22;54700;51.796;10.956;2023-04-25T19:52:24;5.60;98.60
67901;DHT22;54700;51.796;10.956;2023-04-25T19:54:51;5.70;98.40
67901;DHT22;54700;51.796;10.956;2023-04-25T19:57:22;5.70;97.80
67901;DHT22;54700;51.796;10.956;2023-04-25T19:59:52;5.70;97.10
67901;DHT22;54700;51.796;10.956;2023-04-25T20:02:21;5.80;95.80
67901;DHT22;54700;51.796;10.956;2023-04-25T20:04:48;5.80;96.30
67901;DHT22;54700;51.796;10.956;2023-04-25T20:07:17;5.80;95.90
67901;DHT22;54700;51.796;10.956;2023-04-25T20:09:46;5.90;96.30
67901;DHT22;54700;51.796;10.956;2023-04-25T20:12:13;5.80;95.60